createdAt,value
2023-01-09T00:00:00.871Z,1.40
2023-01-09T00:00:15.798Z,1.40
2023-01-09T00:00:29.451Z,1.38
2023-01-09T00:00:41.684Z,1.40
2023-01-09T00:00:54.549Z,1.50
2023-01-09T00:01:19.544Z,1.45
2023-01-09T00:01:35.357Z,1.38
2023-01-09T00:01:50.708Z,1.30
2023-01-09T00:02:02.733Z,1.23
2023-01-09T00:02:14.684Z,1.30
2023-01-09T00:02:26.616Z,1.20
2023-01-09T00:02:40.795Z,1.40
2023-01-09T00:02:52.836Z,1.60
2023-01-09T00:03:05.105Z,1.50
2023-01-09T00:03:17.037Z,1.40
2023-01-09T00:03:29.226Z,1.40
2023-01-09T00:03:41.157Z,1.40
2023-01-09T00:03:53.242Z,1.33
2023-01-09T00:04:05.681Z,1.42
2023-01-09T00:04:18.791Z,1.30
2023-01-09T00:04:30.931Z,1.30
2023-01-09T00:04:43.293Z,1.20
2023-01-09T00:04:55.256Z,1.15
2023-01-09T00:05:08.517Z,1.17
2023-01-09T00:05:20.830Z,1.10
2023-01-09T00:05:32.858Z,1.05
2023-01-09T00:05:44.815Z,1.10
2023-01-09T00:05:56.731Z,1.00
2023-01-09T00:06:08.871Z,1.10
2023-01-09T00:06:20.997Z,1.02
2023-01-09T00:06:33.042Z,1.10
2023-01-09T00:06:53.937Z,1.10
2023-01-09T00:07:06.347Z,0.90
2023-01-09T00:07:18.310Z,0.98
2023-01-09T00:07:30.280Z,1.00
2023-01-09T00:07:45.277Z,1.00
2023-01-09T00:07:57.212Z,1.10
2023-01-09T00:08:09.121Z,1.00
2023-01-09T00:08:21.268Z,1.00
2023-01-09T00:08:33.209Z,0.93
2023-01-09T00:08:45.408Z,1.00
2023-01-09T00:08:57.555Z,1.10
2023-01-09T00:09:10.802Z,1.05
2023-01-09T00:09:24.124Z,1.10
2023-01-09T00:09:36.215Z,1.05
2023-01-09T00:09:48.114Z,0.98
2023-01-09T00:10:00.162Z,1.00
2023-01-09T00:10:12.873Z,1.00
2023-01-09T00:10:24.994Z,0.90
2023-01-09T00:10:36.904Z,0.90
2023-01-09T00:10:50.330Z,0.90
2023-01-09T00:11:02.291Z,1.00
2023-01-09T00:11:14.358Z,1.00
2023-01-09T00:11:26.570Z,1.00
2023-01-09T00:11:38.785Z,1.10
2023-01-09T00:11:51.674Z,1.00
2023-01-09T00:12:06.423Z,1.00
2023-01-09T00:12:20.269Z,1.10
2023-01-09T00:12:32.386Z,1.00
2023-01-09T00:12:44.263Z,0.98
2023-01-09T00:12:59.222Z,1.00
2023-01-09T00:13:12.755Z,1.00
2023-01-09T00:13:24.935Z,0.98
2023-01-09T00:13:38.307Z,1.00
2023-01-09T00:13:53.072Z,1.00
2023-01-09T00:14:05.200Z,0.90
2023-01-09T00:14:18.537Z,0.90
2023-01-09T00:14:30.499Z,0.82
2023-01-09T00:14:42.394Z,0.80
2023-01-09T00:14:54.273Z,0.80
2023-01-09T00:15:07.089Z,0.90
2023-01-09T00:15:19.073Z,0.93
2023-01-09T00:15:31.056Z,0.95
2023-01-09T00:15:43.063Z,0.90
2023-01-09T00:15:55.005Z,0.90
2023-01-09T00:16:08.190Z,0.90
2023-01-09T00:16:20.756Z,0.95
2023-01-09T00:16:32.731Z,1.00
2023-01-09T00:16:45.355Z,1.15
2023-01-09T00:16:57.381Z,1.00
2023-01-09T00:17:09.438Z,1.00
2023-01-09T00:17:21.357Z,1.00
2023-01-09T00:17:33.415Z,1.20
2023-01-09T00:17:47.964Z,1.17
2023-01-09T00:18:00.103Z,1.23
2023-01-09T00:18:12.058Z,1.15
2023-01-09T00:18:23.948Z,1.00
2023-01-09T00:18:37.003Z,0.90
2023-01-09T00:18:48.935Z,0.90
2023-01-09T00:19:00.994Z,1.13
2023-01-09T00:19:13.104Z,1.10
2023-01-09T00:19:25.187Z,1.00
2023-01-09T00:19:37.095Z,1.00
2023-01-09T00:19:49.042Z,1.08
2023-01-09T00:20:00.992Z,1.17
2023-01-09T00:20:13.038Z,1.20
2023-01-09T00:20:25.109Z,1.10
2023-01-09T00:20:37.188Z,1.20
2023-01-09T00:20:49.276Z,1.10
2023-01-09T00:21:03.276Z,0.90
2023-01-09T00:21:15.988Z,0.80
2023-01-09T00:21:28.019Z,0.80
2023-01-09T00:21:40.347Z,0.90
2023-01-09T00:21:52.392Z,1.00
2023-01-09T00:22:06.403Z,1.13
2023-01-09T00:22:18.548Z,1.20
2023-01-09T00:22:31.258Z,1.13
2023-01-09T00:22:43.359Z,1.10
2023-01-09T00:22:55.242Z,1.20
2023-01-09T00:23:07.244Z,1.30
2023-01-09T00:23:19.120Z,1.20
2023-01-09T00:23:31.518Z,1.13
2023-01-09T00:23:43.563Z,1.15
2023-01-09T00:23:55.590Z,1.10
2023-01-09T00:24:07.913Z,1.10
2023-01-09T00:24:19.850Z,1.00
2023-01-09T00:24:32.263Z,1.02
2023-01-09T00:24:44.221Z,1.20
2023-01-09T00:24:56.175Z,1.17
2023-01-09T00:25:08.770Z,1.20
2023-01-09T00:25:22.711Z,1.10
2023-01-09T00:25:35.108Z,1.00
2023-01-09T00:25:47.075Z,1.00
2023-01-09T00:26:06.360Z,1.05
2023-01-09T00:26:21.837Z,1.08
2023-01-09T00:26:34.610Z,1.00
2023-01-09T00:26:46.479Z,0.95
2023-01-09T00:26:58.422Z,0.90
2023-01-09T00:27:10.454Z,0.95
2023-01-09T00:27:22.427Z,1.10
2023-01-09T00:27:35.558Z,1.05
2023-01-09T00:27:47.482Z,1.00
2023-01-09T00:27:59.371Z,0.98
2023-01-09T00:28:11.302Z,0.90
2023-01-09T00:28:23.450Z,0.98
2023-01-09T00:28:36.018Z,0.98
2023-01-09T00:28:50.302Z,0.90
2023-01-09T00:29:02.331Z,0.80
2023-01-09T00:29:14.279Z,0.80
2023-01-09T00:29:26.216Z,0.82
2023-01-09T00:29:38.102Z,0.90
2023-01-09T00:29:50.086Z,0.98
2023-01-09T00:30:02.865Z,1.00
2023-01-09T00:30:14.975Z,1.00
2023-01-09T00:30:27.312Z,0.90
2023-01-09T00:30:39.344Z,0.90
2023-01-09T00:31:01.585Z,0.80
2023-01-09T00:31:14.429Z,0.80
2023-01-09T00:31:26.432Z,0.85
2023-01-09T00:31:38.405Z,0.90
2023-01-09T00:31:50.361Z,0.80
2023-01-09T00:32:02.465Z,0.80
2023-01-09T00:32:14.562Z,0.70
2023-01-09T00:32:27.358Z,0.80
2023-01-09T00:32:40.369Z,0.85
2023-01-09T00:32:54.811Z,0.80
2023-01-09T00:33:08.013Z,0.90
2023-01-09T00:33:20.021Z,0.90
2023-01-09T00:33:36.286Z,0.90
2023-01-09T00:34:04.511Z,0.80
2023-01-09T00:34:16.599Z,0.90
2023-01-09T00:34:28.743Z,0.80
2023-01-09T00:34:43.235Z,0.90
2023-01-09T00:34:56.537Z,0.98
2023-01-09T00:35:14.369Z,0.90
2023-01-09T00:35:28.631Z,0.90
2023-01-09T00:35:40.691Z,0.95
2023-01-09T00:35:55.083Z,0.90
2023-01-09T00:36:07.613Z,0.90
2023-01-09T00:36:19.619Z,0.90
2023-01-09T00:36:31.979Z,0.80
2023-01-09T00:36:43.941Z,0.80
2023-01-09T00:36:56.497Z,0.90
2023-01-09T00:37:11.882Z,0.80
2023-01-09T00:37:23.849Z,0.80
2023-01-09T00:37:35.754Z,0.90
2023-01-09T00:37:47.693Z,0.85
2023-01-09T00:37:59.677Z,0.90
2023-01-09T00:38:11.679Z,0.88
2023-01-09T00:38:23.675Z,0.90
2023-01-09T00:38:37.294Z,0.90
2023-01-09T00:38:50.277Z,0.90
2023-01-09T00:39:02.481Z,0.90
2023-01-09T00:39:15.027Z,0.80
2023-01-09T00:39:27.005Z,0.90
2023-01-09T00:39:40.473Z,0.80
2023-01-09T00:39:52.424Z,0.85
2023-01-09T00:40:04.631Z,0.90
2023-01-09T00:40:17.725Z,0.95
2023-01-09T00:40:29.926Z,1.00
2023-01-09T00:40:41.848Z,1.05
2023-01-09T00:40:55.399Z,1.00
2023-01-09T00:41:11.536Z,1.00
2023-01-09T00:41:27.986Z,0.90
2023-01-09T00:41:46.192Z,0.80
2023-01-09T00:41:58.778Z,0.90
2023-01-09T00:42:15.934Z,1.00
2023-01-09T00:42:32.121Z,0.93
2023-01-09T00:42:54.977Z,0.93
2023-01-09T00:43:07.061Z,0.90
2023-01-09T00:43:20.533Z,0.82
2023-01-09T00:43:41.796Z,0.90
2023-01-09T00:43:57.379Z,1.10
2023-01-09T00:44:20.001Z,1.10
2023-01-09T00:44:54.219Z,1.10
2023-01-09T00:45:11.095Z,1.00
2023-01-09T00:45:28.956Z,0.90
2023-01-09T00:45:41.069Z,1.02
2023-01-09T00:45:53.281Z,1.10
2023-01-09T00:46:06.724Z,1.10
2023-01-09T00:46:21.277Z,1.10
2023-01-09T00:46:38.730Z,1.10
2023-01-09T00:46:55.698Z,1.02
2023-01-09T00:47:14.543Z,1.00
2023-01-09T00:47:35.401Z,1.20
2023-01-09T00:47:51.982Z,1.10
2023-01-09T00:48:09.967Z,1.10
2023-01-09T00:48:26.918Z,1.13
2023-01-09T00:48:42.265Z,0.93
2023-01-09T00:48:59.379Z,1.00
2023-01-09T00:49:47.398Z,1.05
2023-01-09T00:50:37.088Z,1.10
2023-01-09T00:51:10.295Z,0.90
2023-01-09T00:51:24.159Z,1.13
2023-01-09T00:51:37.575Z,1.23
2023-01-09T00:51:49.700Z,1.13
2023-01-09T00:52:03.221Z,1.10
2023-01-09T00:52:15.397Z,1.00
2023-01-09T00:52:30.100Z,1.17
2023-01-09T00:52:43.241Z,1.10
2023-01-09T00:53:00.176Z,0.95
2023-01-09T00:53:18.758Z,1.00
2023-01-09T00:53:36.108Z,1.13
2023-01-09T00:53:49.848Z,1.10
2023-01-09T00:54:03.846Z,1.08
2023-01-09T00:54:19.137Z,1.10
2023-01-09T00:54:32.237Z,1.10
2023-01-09T00:54:44.904Z,1.10
2023-01-09T00:54:58.853Z,1.00
2023-01-09T00:55:11.428Z,1.10
2023-01-09T00:55:23.975Z,1.10
2023-01-09T00:55:38.581Z,1.10
2023-01-09T00:55:51.567Z,1.02
2023-01-09T00:56:06.927Z,0.90
2023-01-09T00:56:20.959Z,1.08
2023-01-09T00:56:34.844Z,1.10
2023-01-09T00:56:47.248Z,1.00
2023-01-09T00:56:59.634Z,1.05
2023-01-09T00:57:13.674Z,1.00
2023-01-09T00:57:27.791Z,1.05
2023-01-09T00:57:40.033Z,1.02
2023-01-09T00:57:52.075Z,1.02
2023-01-09T00:58:04.178Z,1.10
2023-01-09T00:58:16.685Z,1.05
2023-01-09T00:58:28.717Z,0.98
2023-01-09T00:58:41.132Z,0.90
2023-01-09T00:58:56.325Z,1.00
2023-01-09T00:59:08.459Z,0.93
2023-01-09T00:59:20.509Z,1.00
2023-01-09T00:59:32.970Z,1.10
2023-01-09T00:59:45.005Z,1.00
2023-01-09T00:59:57.894Z,1.00
2023-01-09T01:00:10.850Z,0.95
2023-01-09T01:00:22.773Z,0.90
2023-01-09T01:00:34.782Z,1.00
2023-01-09T01:00:46.748Z,1.10
2023-01-09T01:00:58.766Z,1.10
2023-01-09T01:01:11.977Z,0.95
2023-01-09T01:01:24.242Z,1.00
2023-01-09T01:01:36.304Z,0.90
2023-01-09T01:01:48.615Z,0.90
2023-01-09T01:02:00.731Z,0.98
2023-01-09T01:02:12.981Z,1.08
2023-01-09T01:02:25.577Z,1.10
2023-01-09T01:02:37.594Z,1.10
2023-01-09T01:02:49.546Z,1.10
2023-01-09T01:03:01.773Z,1.10
2023-01-09T01:03:13.712Z,1.05
2023-01-09T01:03:25.890Z,1.00
2023-01-09T01:03:39.339Z,1.05
2023-01-09T01:03:51.305Z,1.10
2023-01-09T01:04:23.232Z,1.10
2023-01-09T01:04:53.705Z,0.82
2023-01-09T01:05:24.900Z,0.95
2023-01-09T01:05:55.649Z,1.30
2023-01-09T01:06:26.963Z,1.00
2023-01-09T01:07:04.823Z,1.00
2023-01-09T01:07:35.770Z,0.98
2023-01-09T01:07:47.752Z,0.90
2023-01-09T01:07:59.768Z,0.90
2023-01-09T01:08:13.457Z,0.90
2023-01-09T01:08:25.373Z,1.00
2023-01-09T01:08:37.634Z,1.05
2023-01-09T01:08:49.659Z,1.05
2023-01-09T01:09:01.613Z,0.82
2023-01-09T01:09:13.729Z,0.85
2023-01-09T01:09:25.671Z,1.00
2023-01-09T01:09:37.856Z,0.98
2023-01-09T01:09:49.854Z,0.90
2023-01-09T01:10:01.952Z,0.88
2023-01-09T01:10:19.947Z,0.77
2023-01-09T01:10:31.859Z,0.90
2023-01-09T01:10:44.616Z,0.95
2023-01-09T01:10:56.629Z,0.80
2023-01-09T01:11:10.247Z,0.70
2023-01-09T01:11:22.937Z,0.80
2023-01-09T01:11:34.986Z,0.80
2023-01-09T01:11:46.890Z,0.80
2023-01-09T01:11:58.838Z,0.88
2023-01-09T01:12:10.873Z,0.85
2023-01-09T01:12:22.929Z,0.90
2023-01-09T01:12:34.890Z,0.90
2023-01-09T01:12:48.710Z,0.80
2023-01-09T01:13:00.758Z,0.82
2023-01-09T01:13:13.561Z,0.98
2023-01-09T01:13:25.563Z,0.90
2023-01-09T01:13:38.937Z,0.77
2023-01-09T01:13:51.242Z,0.70
2023-01-09T01:14:03.404Z,0.70
2023-01-09T01:14:15.304Z,0.70
2023-01-09T01:14:27.532Z,0.70
2023-01-09T01:14:39.852Z,0.70
2023-01-09T01:14:56.344Z,0.70
2023-01-09T01:15:09.323Z,0.80
2023-01-09T01:15:21.879Z,0.70
2023-01-09T01:15:34.221Z,0.70
2023-01-09T01:15:46.608Z,0.70
2023-01-09T01:15:58.691Z,0.70
2023-01-09T01:16:12.406Z,0.70
2023-01-09T01:16:24.597Z,0.70
2023-01-09T01:16:36.516Z,0.65
2023-01-09T01:16:48.601Z,0.60
2023-01-09T01:17:00.591Z,0.60
2023-01-09T01:17:12.700Z,0.60
2023-01-09T01:17:24.722Z,0.70
2023-01-09T01:17:38.242Z,0.73
2023-01-09T01:17:50.211Z,0.60
2023-01-09T01:18:02.247Z,0.60
2023-01-09T01:18:14.289Z,0.70
2023-01-09T01:18:26.547Z,0.77
2023-01-09T01:18:39.226Z,0.80
2023-01-09T01:18:51.628Z,0.80
2023-01-09T01:19:03.606Z,0.70
2023-01-09T01:19:15.691Z,0.60
2023-01-09T01:19:27.627Z,0.68
2023-01-09T01:19:40.656Z,0.70
2023-01-09T01:19:52.593Z,0.70
2023-01-09T01:20:07.195Z,0.60
2023-01-09T01:20:19.321Z,0.68
2023-01-09T01:20:31.299Z,0.70
2023-01-09T01:20:45.103Z,0.70
2023-01-09T01:20:57.059Z,0.65
2023-01-09T01:21:11.012Z,0.60
2023-01-09T01:21:22.936Z,0.60
2023-01-09T01:21:35.042Z,0.60
2023-01-09T01:21:46.927Z,0.60
2023-01-09T01:21:58.925Z,0.60
2023-01-09T01:22:10.976Z,0.52
2023-01-09T01:22:23.089Z,0.60
2023-01-09T01:22:35.093Z,0.60
2023-01-09T01:22:47.539Z,0.70
2023-01-09T01:22:59.489Z,0.70
2023-01-09T01:23:11.502Z,0.60
2023-01-09T01:23:23.393Z,0.60
2023-01-09T01:23:35.974Z,0.60
2023-01-09T01:23:48.012Z,0.60
2023-01-09T01:23:59.953Z,0.60
2023-01-09T01:24:11.835Z,0.50
2023-01-09T01:24:23.858Z,0.50
2023-01-09T01:24:35.760Z,0.50
2023-01-09T01:24:47.950Z,0.60
2023-01-09T01:24:59.896Z,0.60
2023-01-09T01:25:14.298Z,0.60
2023-01-09T01:25:26.369Z,0.50
2023-01-09T01:25:39.682Z,0.50
2023-01-09T01:25:52.025Z,0.52
2023-01-09T01:26:06.639Z,0.60
2023-01-09T01:26:18.847Z,0.50
2023-01-09T01:26:31.379Z,0.52
2023-01-09T01:26:43.492Z,0.60
2023-01-09T01:26:55.495Z,0.60
2023-01-09T01:27:07.871Z,0.60
2023-01-09T01:27:19.835Z,0.60
2023-01-09T01:27:31.994Z,0.57
2023-01-09T01:27:44.720Z,0.60
2023-01-09T01:27:56.886Z,0.52
2023-01-09T01:28:13.192Z,0.55
2023-01-09T01:28:25.167Z,0.50
2023-01-09T01:28:37.180Z,0.60
2023-01-09T01:28:49.110Z,0.68
2023-01-09T01:29:01.827Z,0.52
2023-01-09T01:29:13.879Z,0.50
2023-01-09T01:29:28.959Z,0.60
2023-01-09T01:29:40.851Z,0.50
2023-01-09T01:29:54.807Z,0.60
2023-01-09T01:30:08.007Z,0.60
2023-01-09T01:30:20.053Z,0.60
2023-01-09T01:30:32.506Z,0.60
2023-01-09T01:30:44.475Z,0.60
2023-01-09T01:30:56.499Z,0.70
2023-01-09T01:31:15.179Z,0.57
2023-01-09T01:31:27.255Z,0.50
2023-01-09T01:31:39.875Z,0.60
2023-01-09T01:31:52.290Z,0.60
2023-01-09T01:32:04.491Z,0.60
2023-01-09T01:32:16.472Z,0.50
2023-01-09T01:32:28.368Z,0.52
2023-01-09T01:32:40.870Z,0.60
2023-01-09T01:32:52.790Z,0.60
2023-01-09T01:33:04.837Z,0.50
2023-01-09T01:33:16.814Z,0.50
2023-01-09T01:33:28.979Z,0.50
2023-01-09T01:33:40.882Z,0.50
2023-01-09T01:33:53.060Z,0.50
2023-01-09T01:34:05.028Z,0.57
2023-01-09T01:34:16.999Z,0.50
2023-01-09T01:34:30.078Z,0.70
2023-01-09T01:34:42.315Z,0.63
2023-01-09T01:34:54.257Z,0.50
2023-01-09T01:35:07.807Z,0.50
2023-01-09T01:35:19.710Z,0.60
2023-01-09T01:35:31.772Z,0.68
2023-01-09T01:35:43.669Z,0.63
2023-01-09T01:36:05.777Z,0.57
2023-01-09T01:36:17.873Z,0.50
2023-01-09T01:36:30.002Z,0.52
2023-01-09T01:36:41.950Z,0.45
2023-01-09T01:36:53.937Z,0.50
2023-01-09T01:37:05.937Z,0.55
2023-01-09T01:37:18.062Z,0.60
2023-01-09T01:37:30.358Z,0.50
2023-01-09T01:37:42.758Z,0.50
2023-01-09T01:37:54.729Z,0.50
2023-01-09T01:38:06.708Z,0.52
2023-01-09T01:38:18.669Z,0.50
2023-01-09T01:38:31.298Z,0.40
2023-01-09T01:38:44.024Z,0.50
2023-01-09T01:38:56.010Z,0.60
2023-01-09T01:39:07.958Z,0.52
2023-01-09T01:39:19.884Z,0.50
2023-01-09T01:39:32.123Z,0.50
2023-01-09T01:39:44.262Z,0.60
2023-01-09T01:39:56.255Z,0.60
2023-01-09T01:40:09.841Z,0.50
2023-01-09T01:40:21.875Z,0.50
2023-01-09T01:40:34.469Z,0.60
2023-01-09T01:40:52.969Z,0.68
2023-01-09T01:41:07.035Z,0.60
2023-01-09T01:41:29.623Z,0.50
2023-01-09T01:41:41.696Z,0.40
2023-01-09T01:41:53.659Z,0.40
2023-01-09T01:42:08.592Z,0.40
2023-01-09T01:42:20.952Z,0.45
2023-01-09T01:42:33.713Z,0.45
2023-01-09T01:42:50.414Z,0.45
2023-01-09T01:43:02.289Z,0.50
2023-01-09T01:43:14.439Z,0.50
2023-01-09T01:43:26.392Z,0.50
2023-01-09T01:43:52.718Z,0.50
2023-01-09T01:44:26.206Z,0.45
2023-01-09T01:44:59.498Z,0.40
2023-01-09T01:45:19.368Z,0.50
2023-01-09T01:45:33.072Z,0.47
2023-01-09T01:45:45.024Z,0.40
2023-01-09T01:45:57.060Z,0.47
2023-01-09T01:46:09.138Z,0.60
2023-01-09T01:46:21.218Z,0.60
2023-01-09T01:46:34.517Z,0.52
2023-01-09T01:46:46.457Z,0.40
2023-01-09T01:46:58.409Z,0.40
2023-01-09T01:47:10.482Z,0.50
2023-01-09T01:47:27.450Z,0.60
2023-01-09T01:48:03.874Z,0.60
2023-01-09T01:48:22.435Z,0.35
2023-01-09T01:48:34.349Z,0.40
2023-01-09T01:48:53.928Z,0.40
2023-01-09T01:49:15.593Z,0.40
2023-01-09T01:49:27.572Z,0.40
2023-01-09T01:49:39.603Z,0.50
2023-01-09T01:49:52.779Z,0.60
2023-01-09T01:50:12.838Z,0.52
2023-01-09T01:50:29.848Z,0.30
2023-01-09T01:50:53.188Z,0.30
2023-01-09T01:51:07.837Z,0.40
2023-01-09T01:51:22.558Z,0.40
2023-01-09T01:51:41.042Z,0.45
2023-01-09T01:51:54.285Z,0.50
2023-01-09T01:52:06.450Z,0.40
2023-01-09T01:52:19.597Z,0.40
2023-01-09T01:52:35.263Z,0.38
2023-01-09T01:52:59.908Z,0.30
2023-01-09T01:53:35.418Z,0.40
2023-01-09T01:53:55.125Z,0.30
2023-01-09T01:54:13.250Z,0.30
2023-01-09T01:54:29.824Z,0.30
2023-01-09T01:54:41.911Z,0.30
2023-01-09T01:54:54.801Z,0.32
2023-01-09T01:55:09.549Z,0.40
2023-01-09T01:55:22.328Z,0.30
2023-01-09T01:55:38.355Z,0.30
2023-01-09T01:56:10.525Z,0.40
2023-01-09T01:56:37.854Z,0.40
2023-01-09T01:56:56.873Z,0.40
2023-01-09T01:57:09.732Z,0.38
2023-01-09T01:57:21.693Z,0.30
2023-01-09T01:57:35.492Z,0.40
2023-01-09T01:57:50.614Z,0.40
2023-01-09T01:58:05.617Z,0.40
2023-01-09T01:58:17.845Z,0.38
2023-01-09T01:58:30.613Z,0.32
2023-01-09T01:58:56.402Z,0.40
2023-01-09T01:59:19.382Z,0.40
2023-01-09T01:59:42.358Z,0.40
2023-01-09T01:59:59.916Z,0.50
2023-01-09T02:00:12.693Z,0.40
2023-01-09T02:00:30.145Z,0.40
2023-01-09T02:00:46.767Z,0.30
2023-01-09T02:00:59.067Z,0.32
2023-01-09T02:01:11.478Z,0.30
2023-01-09T02:01:25.831Z,0.32
2023-01-09T02:01:41.416Z,0.35
2023-01-09T02:01:58.272Z,0.38
2023-01-09T02:02:14.536Z,0.40
2023-01-09T02:02:31.155Z,0.40
2023-01-09T02:02:45.767Z,0.40
2023-01-09T02:02:59.015Z,0.40
2023-01-09T02:03:12.686Z,0.40
2023-01-09T02:03:28.282Z,0.30
2023-01-09T02:03:42.088Z,0.30
2023-01-09T02:03:57.183Z,0.43
2023-01-09T02:04:09.952Z,0.50
2023-01-09T02:04:21.934Z,0.50
2023-01-09T02:04:39.908Z,0.50
2023-01-09T02:04:56.097Z,0.47
2023-01-09T02:05:08.442Z,0.40
2023-01-09T02:05:20.747Z,0.40
2023-01-09T02:05:33.864Z,0.40
2023-01-09T02:05:45.977Z,0.40
2023-01-09T02:05:57.894Z,0.40
2023-01-09T02:06:11.568Z,0.30
2023-01-09T02:06:23.840Z,0.30
2023-01-09T02:06:37.670Z,0.30
2023-01-09T02:06:53.169Z,0.30
2023-01-09T02:07:08.721Z,0.40
2023-01-09T02:07:20.664Z,0.40
2023-01-09T02:07:32.701Z,0.30
2023-01-09T02:07:44.612Z,0.40
2023-01-09T02:07:58.622Z,0.40
2023-01-09T02:08:11.490Z,0.40
2023-01-09T02:08:23.714Z,0.40
2023-01-09T02:08:36.661Z,0.40
2023-01-09T02:08:49.238Z,0.40
2023-01-09T02:09:04.157Z,0.40
2023-01-09T02:09:18.143Z,0.40
2023-01-09T02:09:30.886Z,0.30
2023-01-09T02:09:46.896Z,0.30
2023-01-09T02:10:01.422Z,0.40
2023-01-09T02:10:14.384Z,0.40
2023-01-09T02:10:26.767Z,0.40
2023-01-09T02:10:39.812Z,0.50
2023-01-09T02:10:53.679Z,0.68
2023-01-09T02:11:06.026Z,0.60
2023-01-09T02:11:20.386Z,0.50
2023-01-09T02:11:33.293Z,0.50
2023-01-09T02:11:46.203Z,0.40
2023-01-09T02:11:58.525Z,0.40
2023-01-09T02:12:20.033Z,0.30
2023-01-09T02:12:32.121Z,0.32
2023-01-09T02:12:44.043Z,0.30
2023-01-09T02:12:56.133Z,0.30
2023-01-09T02:13:09.406Z,0.40
2023-01-09T02:13:21.702Z,0.40
2023-01-09T02:13:36.083Z,0.40
2023-01-09T02:13:48.626Z,0.40
2023-01-09T02:14:02.640Z,0.40
2023-01-09T02:14:20.139Z,0.38
2023-01-09T02:14:32.491Z,0.43
2023-01-09T02:14:47.506Z,0.50
2023-01-09T02:15:09.505Z,0.50
2023-01-09T02:15:21.736Z,0.40
2023-01-09T02:15:49.140Z,0.40
2023-01-09T02:16:19.575Z,0.50
2023-01-09T02:16:51.954Z,0.40
2023-01-09T02:17:16.858Z,0.40
2023-01-09T02:18:02.747Z,0.40
2023-01-09T02:18:23.548Z,0.50
2023-01-09T02:18:54.229Z,0.50
2023-01-09T02:19:08.913Z,0.50
2023-01-09T02:19:37.415Z,0.40
2023-01-09T02:20:00.381Z,0.50
2023-01-09T02:20:27.114Z,0.60
2023-01-09T02:20:51.053Z,0.57
2023-01-09T02:21:20.724Z,1.00
2023-01-09T02:21:41.504Z,0.70
2023-01-09T02:22:20.795Z,0.60
2023-01-09T02:22:38.632Z,0.50
2023-01-09T02:23:12.284Z,0.57
2023-01-09T02:24:01.588Z,0.50
2023-01-09T02:24:35.181Z,0.40
2023-01-09T02:25:13.525Z,0.60
2023-01-09T02:26:06.397Z,0.30
2023-01-09T02:26:56.497Z,1.60
2023-01-09T02:27:35.922Z,0.50
2023-01-09T02:28:25.539Z,0.93
2023-01-09T02:28:52.436Z,0.70
2023-01-09T02:29:23.315Z,0.40
2023-01-09T02:30:03.200Z,0.82
2023-01-09T02:30:33.258Z,0.80
2023-01-09T02:31:14.772Z,0.98
2023-01-09T02:31:32.605Z,1.20
2023-01-09T02:32:08.046Z,0.95
2023-01-09T02:32:41.987Z,0.80
2023-01-09T02:33:04.335Z,0.68
2023-01-09T02:33:18.968Z,0.60
2023-01-09T02:33:39.640Z,0.50
2023-01-09T02:33:57.421Z,0.40
2023-01-09T02:34:14.758Z,0.57
2023-01-09T02:34:30.914Z,0.52
2023-01-09T02:35:07.054Z,0.47
2023-01-09T02:35:35.868Z,0.65
2023-01-09T02:36:10.660Z,0.30
2023-01-09T02:37:06.419Z,0.30
2023-01-09T02:37:56.623Z,0.32
2023-01-09T02:38:29.108Z,0.40
2023-01-09T02:39:05.688Z,0.30
2023-01-09T02:39:33.136Z,1.25
2023-01-09T02:40:25.042Z,0.40
2023-01-09T02:40:44.283Z,0.35
2023-01-09T02:41:04.343Z,0.47
2023-01-09T02:41:59.298Z,0.38
2023-01-09T02:42:14.812Z,1.58
2023-01-09T02:42:27.178Z,0.50
2023-01-09T02:42:42.985Z,0.43
2023-01-09T02:42:58.612Z,0.40
2023-01-09T02:43:12.314Z,0.40
2023-01-09T02:43:25.568Z,0.40
2023-01-09T02:43:39.253Z,0.40
2023-01-09T02:44:16.998Z,0.40
2023-01-09T02:44:31.196Z,0.40
2023-01-09T02:44:44.419Z,0.50
2023-01-09T02:44:56.387Z,0.50
2023-01-09T02:45:08.879Z,0.47
2023-01-09T02:45:21.164Z,0.30
2023-01-09T02:45:33.117Z,0.25
2023-01-09T02:45:45.332Z,0.30
2023-01-09T02:45:57.397Z,0.43
2023-01-09T02:46:21.549Z,0.57
2023-01-09T02:46:33.863Z,2.08
2023-01-09T02:46:46.161Z,3.60
2023-01-09T02:47:03.833Z,2.95
2023-01-09T02:47:15.731Z,0.80
2023-01-09T02:47:27.993Z,0.90
2023-01-09T02:47:43.318Z,0.80
2023-01-09T02:47:55.185Z,0.90
2023-01-09T02:48:12.496Z,0.95
2023-01-09T02:48:27.548Z,0.70
2023-01-09T02:48:39.842Z,1.00
2023-01-09T02:48:53.783Z,1.05
2023-01-09T02:49:05.863Z,0.68
2023-01-09T02:49:17.887Z,0.40
2023-01-09T02:49:31.032Z,0.30
2023-01-09T02:49:48.254Z,0.40
2023-01-09T02:50:03.926Z,0.40
2023-01-09T02:50:22.837Z,0.40
2023-01-09T02:50:52.843Z,0.40
2023-01-09T02:51:16.694Z,0.45
2023-01-09T02:51:52.729Z,0.30
2023-01-09T02:52:27.563Z,0.45
2023-01-09T02:52:45.274Z,0.50
2023-01-09T02:53:11.078Z,0.40
2023-01-09T02:54:08.197Z,0.40
2023-01-09T02:54:33.107Z,0.40
2023-01-09T02:54:50.915Z,0.40
2023-01-09T02:55:12.776Z,0.30
2023-01-09T02:55:24.629Z,0.20
2023-01-09T02:55:48.136Z,0.60
2023-01-09T02:56:24.751Z,0.65
2023-01-09T02:56:48.399Z,1.63
2023-01-09T02:57:27.730Z,0.50
2023-01-09T02:57:57.760Z,0.60
2023-01-09T02:58:26.062Z,0.52
2023-01-09T02:59:11.999Z,0.82
2023-01-09T02:59:34.519Z,0.35
2023-01-09T03:00:27.968Z,0.65
2023-01-09T03:01:04.941Z,0.30
2023-01-09T03:01:32.451Z,1.20
2023-01-09T03:01:54.729Z,0.38
2023-01-09T03:02:06.712Z,0.60
2023-01-09T03:02:34.386Z,0.68
2023-01-09T03:02:51.840Z,0.57
2023-01-09T03:03:17.715Z,0.50
2023-01-09T03:03:44.935Z,0.43
2023-01-09T03:04:09.352Z,0.70
2023-01-09T03:05:11.607Z,0.57
2023-01-09T03:05:42.833Z,0.50
2023-01-09T03:05:58.984Z,0.40
2023-01-09T03:06:33.933Z,0.60
2023-01-09T03:06:55.515Z,0.38
2023-01-09T03:07:20.160Z,0.30
2023-01-09T03:07:37.851Z,0.30
2023-01-09T03:07:58.623Z,0.35
2023-01-09T03:08:19.470Z,0.47
2023-01-09T03:08:37.694Z,0.30
2023-01-09T03:08:54.144Z,0.38
2023-01-09T03:09:17.007Z,0.40
2023-01-09T03:09:33.051Z,0.40
2023-01-09T03:09:48.661Z,0.50
2023-01-09T03:10:10.270Z,0.60
2023-01-09T03:10:46.591Z,0.47
2023-01-09T03:11:06.552Z,0.70
2023-01-09T03:11:18.608Z,0.50
2023-01-09T03:11:36.285Z,0.50
2023-01-09T03:11:55.857Z,0.40
2023-01-09T03:12:14.591Z,0.40
2023-01-09T03:12:31.588Z,0.40
2023-01-09T03:12:44.766Z,0.30
2023-01-09T03:12:59.183Z,0.40
2023-01-09T03:13:15.945Z,0.40
2023-01-09T03:13:33.824Z,0.65
2023-01-09T03:13:45.682Z,0.65
2023-01-09T03:14:07.123Z,0.50
2023-01-09T03:14:24.005Z,0.60
2023-01-09T03:14:42.074Z,0.50
2023-01-09T03:14:58.630Z,0.40
2023-01-09T03:15:14.984Z,0.35
2023-01-09T03:15:31.506Z,0.43
2023-01-09T03:15:45.839Z,0.40
2023-01-09T03:16:01.190Z,0.32
2023-01-09T03:16:20.145Z,0.40
2023-01-09T03:16:36.720Z,0.40
2023-01-09T03:16:56.147Z,0.30
2023-01-09T03:17:13.011Z,0.30
2023-01-09T03:17:30.801Z,0.40
2023-01-09T03:17:48.448Z,0.28
2023-01-09T03:18:01.814Z,0.30
2023-01-09T03:18:15.336Z,0.30
2023-01-09T03:18:30.939Z,0.30
2023-01-09T03:18:44.245Z,0.30
2023-01-09T03:18:58.528Z,0.30
2023-01-09T03:19:16.686Z,0.30
2023-01-09T03:19:31.996Z,0.30
2023-01-09T03:19:45.938Z,0.40
2023-01-09T03:20:01.149Z,0.50
2023-01-09T03:20:17.821Z,0.50
2023-01-09T03:20:31.326Z,0.40
2023-01-09T03:20:44.143Z,0.43
2023-01-09T03:20:56.159Z,0.50
2023-01-09T03:21:09.728Z,0.60
2023-01-09T03:21:23.188Z,0.63
2023-01-09T03:21:35.792Z,0.70
2023-01-09T03:21:49.021Z,0.65
2023-01-09T03:22:01.200Z,0.60
2023-01-09T03:22:13.193Z,0.50
2023-01-09T03:22:25.185Z,0.50
2023-01-09T03:22:39.909Z,0.40
2023-01-09T03:23:00.636Z,0.30
2023-01-09T03:23:12.584Z,0.30
2023-01-09T03:23:24.690Z,0.40
2023-01-09T03:23:57.408Z,0.50
2023-01-09T03:24:09.635Z,0.25
2023-01-09T03:24:21.729Z,0.20
2023-01-09T03:24:33.680Z,0.25
2023-01-09T03:24:45.720Z,0.40
2023-01-09T03:24:57.656Z,0.40
2023-01-09T03:25:09.704Z,0.30
2023-01-09T03:25:22.059Z,0.40
2023-01-09T03:25:34.634Z,0.40
2023-01-09T03:25:46.594Z,0.40
2023-01-09T03:25:58.717Z,0.40
2023-01-09T03:26:11.611Z,0.40
2023-01-09T03:26:24.433Z,0.30
2023-01-09T03:26:36.660Z,0.30
2023-01-09T03:26:48.850Z,0.30
2023-01-09T03:27:01.484Z,0.40
2023-01-09T03:27:14.179Z,0.40
2023-01-09T03:27:26.167Z,0.40
2023-01-09T03:27:38.352Z,0.35
2023-01-09T03:27:57.332Z,0.40
2023-01-09T03:28:24.949Z,0.30
2023-01-09T03:28:36.853Z,0.50
2023-01-09T03:28:49.992Z,0.50
2023-01-09T03:29:01.922Z,0.50
2023-01-09T03:29:16.419Z,0.40
2023-01-09T03:29:29.546Z,0.40
2023-01-09T03:29:41.581Z,0.30
2023-01-09T03:29:56.606Z,0.32
2023-01-09T03:30:09.074Z,0.40
2023-01-09T03:30:21.101Z,0.35
2023-01-09T03:30:34.843Z,0.50
2023-01-09T03:30:46.795Z,0.60
2023-01-09T03:30:58.833Z,0.52
2023-01-09T03:31:10.766Z,0.50
2023-01-09T03:31:23.162Z,0.40
2023-01-09T03:31:35.323Z,0.38
2023-01-09T03:31:47.519Z,0.50
2023-01-09T03:31:59.568Z,0.60
2023-01-09T03:32:15.266Z,0.60
2023-01-09T03:32:27.851Z,0.60
2023-01-09T03:32:39.951Z,0.50